sensor_id;sensor_type;location;lat;lon;timestamp;P1;durP1;ratioP1;P2;durP2;ratioP2
39410;SDS011;26579;43.238;23.124;2023-02-04T00:00:05;6.10;;;2.25;;
39410;SDS011;26579;43.238;23.124;2023-02-04T00:02:31;7.88;;;3.78;;
39410;SDS011;26579;43.238;23.124;2023-02-04T00:04:57;9.02;;;3.33;;
39410;SDS011;26579;43.238;23.124;2023-02-04T00:07:23;11.80;;;5.07;;
39410;SDS011;26579;43.238;23.124;2023-02-04T00:09:49;10.85;;;5.05;;
39410;SDS011;26579;43.238;23.124;2023-02-04T00:12:15;6.40;;;3.42;;
39410;SDS011;26579;43.238;23.124;2023-02-04T00:14:41;6.88;;;2.50;;
39410;SDS011;26579;43.238;23.124;2023-02-04T00:17:07;6.53;;;3.03;;
39410;SDS011;26579;43.238;23.124;2023-02-04T00:19:33;6.85;;;3.00;;
39410;SDS011;26579;43.238;23.124;2023-02-04T00:21:58;4.82;;;2.25;;
39410;SDS011;26579;43.238;23.124;2023-02-04T00:24:24;5.90;;;2.95;;
39410;SDS011;26579;43.238;23.124;2023-02-04T00:26:50;5.90;;;2.47;;
39410;SDS011;26579;43.238;23.124;2023-02-04T00:29:15;6.82;;;3.88;;
39410;SDS011;26579;43.238;23.124;2023-02-04T00:31:41;9.40;;;4.78;;
39410;SDS011;26579;43.238;23.124;2023-02-04T00:34:07;6.20;;;2.70;;
39410;SDS011;26579;43.238;23.124;2023-02-04T00:36:32;8.73;;;4.05;;
39410;SDS011;26579;43.238;23.124;2023-02-04T00:38:58;2.67;;;1.30;;
39410;SDS011;26579;43.238;23.124;2023-02-04T00:41:24;7.60;;;3.10;;
39410;SDS011;26579;43.238;23.124;2023-02-04T00:43:49;5.50;;;2.22;;
39410;SDS011;26579;43.238;23.124;2023-02-04T00:46:15;9.70;;;3.17;;
39410;SDS011;26579;43.238;23.124;2023-02-04T00:48:40;3.90;;;1.40;;
39410;SDS011;26579;43.238;23.124;2023-02-04T00:51:06;8.20;;;2.78;;
39410;SDS011;26579;43.238;23.124;2023-02-04T00:53:32;4.72;;;2.05;;
39410;SDS011;26579;43.238;23.124;2023-02-04T00:55:57;3.08;;;1.20;;
39410;SDS011;26579;43.238;23.124;2023-02-04T00:58:23;5.32;;;2.20;;
39410;SDS011;26579;43.238;23.124;2023-02-04T01:00:49;3.33;;;1.50;;
39410;SDS011;26579;43.238;23.124;2023-02-04T01:03:14;5.45;;;2.50;;
39410;SDS011;26579;43.238;23.124;2023-02-04T01:05:40;9.23;;;4.35;;
39410;SDS011;26579;43.238;23.124;2023-02-04T01:08:06;6.25;;;2.58;;
39410;SDS011;26579;43.238;23.124;2023-02-04T01:10:31;1.98;;;0.77;;
39410;SDS011;26579;43.238;23.124;2023-02-04T01:12:57;4.38;;;2.25;;
39410;SDS011;26579;43.238;23.124;2023-02-04T01:15:23;2.13;;;0.90;;
39410;SDS011;26579;43.238;23.124;2023-02-04T01:17:48;2.00;;;0.90;;
39410;SDS011;26579;43.238;23.124;2023-02-04T01:20:15;3.30;;;2.03;;
39410;SDS011;26579;43.238;23.124;2023-02-04T01:22:41;2.30;;;1.40;;
39410;SDS011;26579;43.238;23.124;2023-02-04T01:25:06;4.50;;;2.65;;
39410;SDS011;26579;43.238;23.124;2023-02-04T01:27:39;2.85;;;1.45;;
39410;SDS011;26579;43.238;23.124;2023-02-04T01:30:05;2.90;;;1.55;;
39410;SDS011;26579;43.238;23.124;2023-02-04T01:32:32;2.80;;;1.50;;
39410;SDS011;26579;43.238;23.124;2023-02-04T01:34:58;2.20;;;1.00;;
39410;SDS011;26579;43.238;23.124;2023-02-04T01:37:24;3.47;;;2.03;;
39410;SDS011;26579;43.238;23.124;2023-02-04T01:39:50;5.45;;;2.22;;
39410;SDS011;26579;43.238;23.124;2023-02-04T01:42:16;4.22;;;1.80;;
39410;SDS011;26579;43.238;23.124;2023-02-04T01:44:42;6.13;;;2.30;;
39410;SDS011;26579;43.238;23.124;2023-02-04T01:47:08;11.00;;;3.60;;
39410;SDS011;26579;43.238;23.124;2023-02-04T01:49:34;5.15;;;2.47;;
39410;SDS011;26579;43.238;23.124;2023-02-04T01:52:00;7.38;;;5.38;;
39410;SDS011;26579;43.238;23.124;2023-02-04T01:54:28;3.95;;;1.63;;
39410;SDS011;26579;43.238;23.124;2023-02-04T01:56:55;2.80;;;1.10;;
39410;SDS011;26579;43.238;23.124;2023-02-04T01:59:22;2.55;;;1.17;;
39410;SDS011;26579;43.238;23.124;2023-02-04T02:01:49;3.92;;;1.88;;
39410;SDS011;26579;43.238;23.124;2023-02-04T02:04:19;1.00;;;0.52;;
39410;SDS011;26579;43.238;23.124;2023-02-04T02:06:54;3.88;;;1.60;;
39410;SDS011;26579;43.238;23.124;2023-02-04T02:09:22;2.42;;;1.08;;
39410;SDS011;26579;43.238;23.124;2023-02-04T02:11:48;3.30;;;1.45;;
39410;SDS011;26579;43.238;23.124;2023-02-04T02:14:14;2.00;;;0.82;;
39410;SDS011;26579;43.238;23.124;2023-02-04T02:16:40;2.03;;;0.77;;
39410;SDS011;26579;43.238;23.124;2023-02-04T02:19:06;1.55;;;0.70;;
39410;SDS011;26579;43.238;23.124;2023-02-04T02:21:44;1.52;;;0.65;;
39410;SDS011;26579;43.238;23.124;2023-02-04T02:24:22;1.58;;;1.00;;
39410;SDS011;26579;43.238;23.124;2023-02-04T02:26:48;2.03;;;0.70;;
39410;SDS011;26579;43.238;23.124;2023-02-04T02:29:15;1.52;;;0.88;;
39410;SDS011;26579;43.238;23.124;2023-02-04T02:31:41;1.17;;;0.50;;
39410;SDS011;26579;43.238;23.124;2023-02-04T02:34:06;1.00;;;0.32;;
39410;SDS011;26579;43.238;23.124;2023-02-04T02:36:32;1.60;;;0.63;;
39410;SDS011;26579;43.238;23.124;2023-02-04T02:38:58;0.50;;;0.32;;
39410;SDS011;26579;43.238;23.124;2023-02-04T02:41:23;2.38;;;0.65;;
39410;SDS011;26579;43.238;23.124;2023-02-04T02:43:49;2.83;;;1.20;;
39410;SDS011;26579;43.238;23.124;2023-02-04T02:46:15;2.88;;;1.25;;
39410;SDS011;26579;43.238;23.124;2023-02-04T02:48:41;5.22;;;2.10;;
39410;SDS011;26579;43.238;23.124;2023-02-04T02:51:06;5.80;;;3.05;;
39410;SDS011;26579;43.238;23.124;2023-02-04T02:53:32;5.50;;;2.53;;
39410;SDS011;26579;43.238;23.124;2023-02-04T02:55:58;6.22;;;2.17;;
39410;SDS011;26579;43.238;23.124;2023-02-04T02:58:28;7.22;;;2.63;;
39410;SDS011;26579;43.238;23.124;2023-02-04T03:00:58;4.03;;;1.63;;
39410;SDS011;26579;43.238;23.124;2023-02-04T03:03:27;2.80;;;1.08;;
39410;SDS011;26579;43.238;23.124;2023-02-04T03:05:56;2.90;;;1.27;;
39410;SDS011;26579;43.238;23.124;2023-02-04T03:08:26;3.33;;;1.50;;
39410;SDS011;26579;43.238;23.124;2023-02-04T03:10:52;3.20;;;1.05;;
39410;SDS011;26579;43.238;23.124;2023-02-04T03:13:18;1.92;;;0.80;;
39410;SDS011;26579;43.238;23.124;2023-02-04T03:15:45;2.33;;;0.85;;
39410;SDS011;26579;43.238;23.124;2023-02-04T03:18:12;6.22;;;2.65;;
39410;SDS011;26579;43.238;23.124;2023-02-04T03:20:40;3.90;;;2.17;;
39410;SDS011;26579;43.238;23.124;2023-02-04T03:23:07;3.45;;;1.35;;
39410;SDS011;26579;43.238;23.124;2023-02-04T03:25:33;4.07;;;1.30;;
39410;SDS011;26579;43.238;23.124;2023-02-04T03:27:58;2.35;;;1.00;;
39410;SDS011;26579;43.238;23.124;2023-02-04T03:30:24;2.20;;;1.02;;
39410;SDS011;26579;43.238;23.124;2023-02-04T03:32:51;1.67;;;0.50;;
39410;SDS011;26579;43.238;23.124;2023-02-04T03:35:17;1.52;;;0.88;;
39410;SDS011;26579;43.238;23.124;2023-02-04T03:37:43;2.80;;;1.45;;
39410;SDS011;26579;43.238;23.124;2023-02-04T03:40:09;1.50;;;0.70;;
39410;SDS011;26579;43.238;23.124;2023-02-04T03:42:35;1.02;;;0.50;;
39410;SDS011;26579;43.238;23.124;2023-02-04T03:45:01;1.50;;;0.32;;
39410;SDS011;26579;43.238;23.124;2023-02-04T03:47:27;2.33;;;0.50;;
39410;SDS011;26579;43.238;23.124;2023-02-04T03:49:53;2.00;;;0.90;;
39410;SDS011;26579;43.238;23.124;2023-02-04T03:52:19;0.60;;;0.30;;
39410;SDS011;26579;43.238;23.124;2023-02-04T03:54:45;1.63;;;0.70;;
39410;SDS011;26579;43.238;23.124;2023-02-04T03:57:11;1.73;;;0.68;;
39410;SDS011;26579;43.238;23.124;2023-02-04T03:59:36;0.73;;;0.40;;
39410;SDS011;26579;43.238;23.124;2023-02-04T04:02:02;0.20;;;0.20;;
39410;SDS011;26579;43.238;23.124;2023-02-04T04:04:28;1.00;;;0.30;;
39410;SDS011;26579;43.238;23.124;2023-02-04T04:06:54;0.35;;;0.30;;
39410;SDS011;26579;43.238;23.124;2023-02-04T04:09:20;0.80;;;0.30;;
39410;SDS011;26579;43.238;23.124;2023-02-04T04:11:46;1.52;;;0.52;;
39410;SDS011;26579;43.238;23.124;2023-02-04T04:14:11;1.95;;;0.90;;
39410;SDS011;26579;43.238;23.124;2023-02-04T04:16:37;2.15;;;0.73;;
39410;SDS011;26579;43.238;23.124;2023-02-04T04:19:03;0.88;;;0.40;;
39410;SDS011;26579;43.238;23.124;2023-02-04T04:21:28;1.65;;;0.55;;
39410;SDS011;26579;43.238;23.124;2023-02-04T04:23:54;1.33;;;0.70;;
39410;SDS011;26579;43.238;23.124;2023-02-04T04:26:20;1.50;;;0.55;;
39410;SDS011;26579;43.238;23.124;2023-02-04T04:28:46;1.20;;;0.40;;
39410;SDS011;26579;43.238;23.124;2023-02-04T04:31:12;0.85;;;0.57;;
39410;SDS011;26579;43.238;23.124;2023-02-04T04:33:37;1.88;;;0.50;;
39410;SDS011;26579;43.238;23.124;2023-02-04T04:36:03;3.20;;;1.20;;
39410;SDS011;26579;43.238;23.124;2023-02-04T04:38:30;3.83;;;1.38;;
39410;SDS011;26579;43.238;23.124;2023-02-04T04:40:55;4.53;;;1.75;;
39410;SDS011;26579;43.238;23.124;2023-02-04T04:43:21;3.60;;;0.90;;
39410;SDS011;26579;43.238;23.124;2023-02-04T04:45:47;1.45;;;0.60;;
39410;SDS011;26579;43.238;23.124;2023-02-04T04:48:13;2.92;;;0.88;;
39410;SDS011;26579;43.238;23.124;2023-02-04T04:50:38;3.53;;;1.10;;
39410;SDS011;26579;43.238;23.124;2023-02-04T04:53:04;7.07;;;2.83;;
39410;SDS011;26579;43.238;23.124;2023-02-04T04:55:30;5.60;;;2.13;;
39410;SDS011;26579;43.238;23.124;2023-02-04T04:57:55;5.45;;;2.00;;
39410;SDS011;26579;43.238;23.124;2023-02-04T05:00:21;2.15;;;0.63;;
39410;SDS011;26579;43.238;23.124;2023-02-04T05:02:47;1.67;;;0.50;;
39410;SDS011;26579;43.238;23.124;2023-02-04T05:05:12;2.55;;;1.20;;
39410;SDS011;26579;43.238;23.124;2023-02-04T05:07:38;2.13;;;0.80;;
39410;SDS011;26579;43.238;23.124;2023-02-04T05:10:04;2.20;;;1.10;;
39410;SDS011;26579;43.238;23.124;2023-02-04T05:12:30;4.88;;;1.60;;
39410;SDS011;26579;43.238;23.124;2023-02-04T05:14:56;1.98;;;0.70;;
39410;SDS011;26579;43.238;23.124;2023-02-04T05:17:22;3.38;;;1.08;;
39410;SDS011;26579;43.238;23.124;2023-02-04T05:19:47;3.67;;;1.88;;
39410;SDS011;26579;43.238;23.124;2023-02-04T05:22:13;2.35;;;1.40;;
39410;SDS011;26579;43.238;23.124;2023-02-04T05:24:39;4.78;;;2.20;;
39410;SDS011;26579;43.238;23.124;2023-02-04T05:27:04;4.97;;;2.45;;
39410;SDS011;26579;43.238;23.124;2023-02-04T05:29:30;5.03;;;2.40;;
39410;SDS011;26579;43.238;23.124;2023-02-04T05:31:56;3.45;;;1.27;;
39410;SDS011;26579;43.238;23.124;2023-02-04T05:34:21;2.45;;;1.08;;
39410;SDS011;26579;43.238;23.124;2023-02-04T05:36:47;4.55;;;2.20;;
39410;SDS011;26579;43.238;23.124;2023-02-04T05:39:12;2.70;;;1.17;;
39410;SDS011;26579;43.238;23.124;2023-02-04T05:41:38;3.78;;;1.52;;
39410;SDS011;26579;43.238;23.124;2023-02-04T05:44:04;2.70;;;1.15;;
39410;SDS011;26579;43.238;23.124;2023-02-04T05:46:29;6.80;;;2.13;;
39410;SDS011;26579;43.238;23.124;2023-02-04T05:48:55;6.53;;;1.65;;
39410;SDS011;26579;43.238;23.124;2023-02-04T05:51:21;4.28;;;1.20;;
39410;SDS011;26579;43.238;23.124;2023-02-04T05:53:47;7.30;;;1.92;;
39410;SDS011;26579;43.238;23.124;2023-02-04T05:56:12;4.47;;;1.80;;
39410;SDS011;26579;43.238;23.124;2023-02-04T05:58:38;2.90;;;0.90;;
39410;SDS011;26579;43.238;23.124;2023-02-04T06:01:03;2.92;;;0.85;;
39410;SDS011;26579;43.238;23.124;2023-02-04T06:03:29;3.30;;;1.48;;
39410;SDS011;26579;43.238;23.124;2023-02-04T06:05:55;4.93;;;1.55;;
39410;SDS011;26579;43.238;23.124;2023-02-04T06:08:21;5.88;;;1.90;;
39410;SDS011;26579;43.238;23.124;2023-02-04T06:10:48;7.75;;;3.38;;
39410;SDS011;26579;43.238;23.124;2023-02-04T06:13:13;11.75;;;4.18;;
39410;SDS011;26579;43.238;23.124;2023-02-04T06:15:39;12.25;;;3.97;;
39410;SDS011;26579;43.238;23.124;2023-02-04T06:18:05;27.08;;;10.68;;
39410;SDS011;26579;43.238;23.124;2023-02-04T06:20:31;28.48;;;12.15;;
39410;SDS011;26579;43.238;23.124;2023-02-04T06:22:57;14.05;;;6.55;;
39410;SDS011;26579;43.238;23.124;2023-02-04T06:25:24;9.32;;;3.50;;
39410;SDS011;26579;43.238;23.124;2023-02-04T06:27:50;5.32;;;2.35;;
39410;SDS011;26579;43.238;23.124;2023-02-04T06:30:15;6.43;;;1.55;;
39410;SDS011;26579;43.238;23.124;2023-02-04T06:32:42;2.72;;;1.00;;
39410;SDS011;26579;43.238;23.124;2023-02-04T06:35:07;1.10;;;0.50;;
39410;SDS011;26579;43.238;23.124;2023-02-04T06:37:33;4.30;;;1.90;;
39410;SDS011;26579;43.238;23.124;2023-02-04T06:39:59;6.22;;;1.98;;
39410;SDS011;26579;43.238;23.124;2023-02-04T06:42:25;6.68;;;3.45;;
39410;SDS011;26579;43.238;23.124;2023-02-04T06:44:51;4.43;;;2.05;;
39410;SDS011;26579;43.238;23.124;2023-02-04T06:47:17;3.67;;;2.60;;
39410;SDS011;26579;43.238;23.124;2023-02-04T06:49:43;32.83;;;18.48;;
39410;SDS011;26579;43.238;23.124;2023-02-04T06:52:09;45.63;;;23.60;;
39410;SDS011;26579;43.238;23.124;2023-02-04T06:54:34;36.97;;;20.80;;
39410;SDS011;26579;43.238;23.124;2023-02-04T06:57:00;36.75;;;19.00;;
39410;SDS011;26579;43.238;23.124;2023-02-04T06:59:26;33.90;;;17.42;;
39410;SDS011;26579;43.238;23.124;2023-02-04T07:01:52;30.83;;;17.92;;
39410;SDS011;26579;43.238;23.124;2023-02-04T07:04:17;26.25;;;14.48;;
39410;SDS011;26579;43.238;23.124;2023-02-04T07:06:43;23.33;;;12.98;;
39410;SDS011;26579;43.238;23.124;2023-02-04T07:09:09;32.30;;;19.35;;
39410;SDS011;26579;43.238;23.124;2023-02-04T07:11:34;29.13;;;16.80;;
39410;SDS011;26579;43.238;23.124;2023-02-04T07:14:00;26.30;;;15.13;;
39410;SDS011;26579;43.238;23.124;2023-02-04T07:16:26;30.70;;;16.20;;
39410;SDS011;26579;43.238;23.124;2023-02-04T07:18:51;33.67;;;18.67;;
39410;SDS011;26579;43.238;23.124;2023-02-04T07:21:17;42.90;;;22.33;;
39410;SDS011;26579;43.238;23.124;2023-02-04T07:23:43;40.38;;;22.88;;
39410;SDS011;26579;43.238;23.124;2023-02-04T07:26:09;50.92;;;29.67;;
39410;SDS011;26579;43.238;23.124;2023-02-04T07:28:34;60.17;;;29.92;;
39410;SDS011;26579;43.238;23.124;2023-02-04T07:31:00;42.00;;;20.63;;
39410;SDS011;26579;43.238;23.124;2023-02-04T07:33:26;28.20;;;17.08;;
39410;SDS011;26579;43.238;23.124;2023-02-04T07:35:52;20.00;;;12.07;;
39410;SDS011;26579;43.238;23.124;2023-02-04T07:38:17;21.77;;;10.85;;
39410;SDS011;26579;43.238;23.124;2023-02-04T07:40:43;17.92;;;9.75;;
39410;SDS011;26579;43.238;23.124;2023-02-04T07:43:09;11.80;;;8.00;;
39410;SDS011;26579;43.238;23.124;2023-02-04T07:45:34;11.07;;;4.80;;
39410;SDS011;26579;43.238;23.124;2023-02-04T07:48:00;5.07;;;2.22;;
39410;SDS011;26579;43.238;23.124;2023-02-04T07:50:26;6.97;;;3.47;;
39410;SDS011;26579;43.238;23.124;2023-02-04T07:52:52;7.05;;;3.65;;
39410;SDS011;26579;43.238;23.124;2023-02-04T07:55:17;5.63;;;3.10;;
39410;SDS011;26579;43.238;23.124;2023-02-04T07:57:43;6.75;;;3.60;;
39410;SDS011;26579;43.238;23.124;2023-02-04T08:00:09;14.27;;;8.77;;
39410;SDS011;26579;43.238;23.124;2023-02-04T08:02:41;9.10;;;4.88;;
39410;SDS011;26579;43.238;23.124;2023-02-04T08:05:07;32.63;;;16.63;;
39410;SDS011;26579;43.238;23.124;2023-02-04T08:07:33;72.18;;;35.42;;
39410;SDS011;26579;43.238;23.124;2023-02-04T08:09:59;17.00;;;10.75;;
39410;SDS011;26579;43.238;23.124;2023-02-04T08:12:25;12.07;;;5.95;;
39410;SDS011;26579;43.238;23.124;2023-02-04T08:14:50;24.63;;;14.10;;
39410;SDS011;26579;43.238;23.124;2023-02-04T08:17:19;27.55;;;15.48;;
39410;SDS011;26579;43.238;23.124;2023-02-04T08:19:45;59.30;;;29.15;;
39410;SDS011;26579;43.238;23.124;2023-02-04T08:22:10;24.77;;;13.65;;
39410;SDS011;26579;43.238;23.124;2023-02-04T08:24:36;17.88;;;10.88;;
39410;SDS011;26579;43.238;23.124;2023-02-04T08:27:02;21.67;;;10.35;;
39410;SDS011;26579;43.238;23.124;2023-02-04T08:29:28;24.95;;;13.05;;
39410;SDS011;26579;43.238;23.124;2023-02-04T08:31:53;17.48;;;7.50;;
39410;SDS011;26579;43.238;23.124;2023-02-04T08:34:19;20.80;;;10.23;;
39410;SDS011;26579;43.238;23.124;2023-02-04T08:36:45;16.33;;;8.60;;
39410;SDS011;26579;43.238;23.124;2023-02-04T08:39:11;18.65;;;9.38;;
39410;SDS011;26579;43.238;23.124;2023-02-04T08:41:37;29.33;;;11.20;;
39410;SDS011;26579;43.238;23.124;2023-02-04T08:44:03;19.85;;;8.55;;
39410;SDS011;26579;43.238;23.124;2023-02-04T08:46:29;19.95;;;10.32;;
39410;SDS011;26579;43.238;23.124;2023-02-04T08:48:54;22.95;;;13.30;;
39410;SDS011;26579;43.238;23.124;2023-02-04T08:51:20;22.73;;;12.00;;
39410;SDS011;26579;43.238;23.124;2023-02-04T08:53:46;26.90;;;13.80;;
39410;SDS011;26579;43.238;23.124;2023-02-04T08:56:12;21.05;;;10.38;;
39410;SDS011;26579;43.238;23.124;2023-02-04T08:58:38;18.85;;;9.57;;
39410;SDS011;26579;43.238;23.124;2023-02-04T09:01:04;20.20;;;9.00;;
39410;SDS011;26579;43.238;23.124;2023-02-04T09:03:29;18.00;;;7.40;;
39410;SDS011;26579;43.238;23.124;2023-02-04T09:05:55;16.73;;;7.60;;
39410;SDS011;26579;43.238;23.124;2023-02-04T09:08:21;19.23;;;9.43;;
39410;SDS011;26579;43.238;23.124;2023-02-04T09:10:47;18.00;;;8.15;;
39410;SDS011;26579;43.238;23.124;2023-02-04T09:13:12;27.25;;;12.57;;
39410;SDS011;26579;43.238;23.124;2023-02-04T09:15:38;27.05;;;12.45;;
39410;SDS011;26579;43.238;23.124;2023-02-04T09:18:04;24.90;;;8.70;;
39410;SDS011;26579;43.238;23.124;2023-02-04T09:20:29;25.67;;;10.23;;
39410;SDS011;26579;43.238;23.124;2023-02-04T09:22:55;35.65;;;17.55;;
39410;SDS011;26579;43.238;23.124;2023-02-04T09:25:21;21.27;;;11.60;;
39410;SDS011;26579;43.238;23.124;2023-02-04T09:27:46;20.67;;;11.88;;
39410;SDS011;26579;43.238;23.124;2023-02-04T09:30:12;22.70;;;10.77;;
39410;SDS011;26579;43.238;23.124;2023-02-04T09:32:38;15.55;;;7.22;;
39410;SDS011;26579;43.238;23.124;2023-02-04T09:35:04;10.52;;;4.80;;
39410;SDS011;26579;43.238;23.124;2023-02-04T09:37:30;11.07;;;5.88;;
39410;SDS011;26579;43.238;23.124;2023-02-04T09:39:55;5.55;;;2.67;;
39410;SDS011;26579;43.238;23.124;2023-02-04T09:42:21;7.32;;;3.83;;
39410;SDS011;26579;43.238;23.124;2023-02-04T09:44:50;4.75;;;2.60;;
39410;SDS011;26579;43.238;23.124;2023-02-04T09:47:15;3.35;;;1.67;;
39410;SDS011;26579;43.238;23.124;2023-02-04T09:49:46;25.55;;;14.90;;
39410;SDS011;26579;43.238;23.124;2023-02-04T09:52:12;3.72;;;2.20;;
39410;SDS011;26579;43.238;23.124;2023-02-04T09:54:40;16.02;;;8.32;;
39410;SDS011;26579;43.238;23.124;2023-02-04T09:57:12;8.02;;;4.57;;
39410;SDS011;26579;43.238;23.124;2023-02-04T09:59:41;12.77;;;7.80;;
39410;SDS011;26579;43.238;23.124;2023-02-04T10:04:50;5.13;;;2.70;;
39410;SDS011;26579;43.238;23.124;2023-02-04T10:07:20;9.68;;;6.53;;
39410;SDS011;26579;43.238;23.124;2023-02-04T10:09:47;14.63;;;7.88;;
39410;SDS011;26579;43.238;23.124;2023-02-04T10:12:13;8.07;;;4.50;;
39410;SDS011;26579;43.238;23.124;2023-02-04T10:14:39;12.98;;;7.60;;
39410;SDS011;26579;43.238;23.124;2023-02-04T10:17:04;6.10;;;2.80;;
39410;SDS011;26579;43.238;23.124;2023-02-04T10:19:33;15.55;;;7.13;;
39410;SDS011;26579;43.238;23.124;2023-02-04T10:21:59;12.32;;;5.38;;
39410;SDS011;26579;43.238;23.124;2023-02-04T10:24:25;9.50;;;5.50;;
39410;SDS011;26579;43.238;23.124;2023-02-04T10:26:52;7.55;;;3.88;;
39410;SDS011;26579;43.238;23.124;2023-02-04T10:29:19;10.77;;;5.50;;
39410;SDS011;26579;43.238;23.124;2023-02-04T10:31:48;11.15;;;6.22;;
39410;SDS011;26579;43.238;23.124;2023-02-04T10:34:19;10.35;;;4.07;;
39410;SDS011;26579;43.238;23.124;2023-02-04T10:36:47;9.07;;;4.18;;
39410;SDS011;26579;43.238;23.124;2023-02-04T10:39:20;2.80;;;1.20;;
39410;SDS011;26579;43.238;23.124;2023-02-04T10:41:51;3.47;;;1.30;;
39410;SDS011;26579;43.238;23.124;2023-02-04T10:44:24;5.97;;;2.22;;
39410;SDS011;26579;43.238;23.124;2023-02-04T10:47:02;4.38;;;2.30;;
39410;SDS011;26579;43.238;23.124;2023-02-04T10:49:29;7.15;;;3.17;;
39410;SDS011;26579;43.238;23.124;2023-02-04T10:51:55;10.18;;;5.72;;
39410;SDS011;26579;43.238;23.124;2023-02-04T10:54:25;4.30;;;2.40;;
39410;SDS011;26579;43.238;23.124;2023-02-04T10:57:55;10.05;;;5.05;;
39410;SDS011;26579;43.238;23.124;2023-02-04T10:59:57;12.45;;;6.63;;
39410;SDS011;26579;43.238;23.124;2023-02-04T11:05:21;11.23;;;5.20;;
39410;SDS011;26579;43.238;23.124;2023-02-04T11:07:53;7.07;;;4.25;;
39410;SDS011;26579;43.238;23.124;2023-02-04T11:10:20;3.45;;;1.73;;
39410;SDS011;26579;43.238;23.124;2023-02-04T11:18:06;21.20;;;10.70;;
39410;SDS011;26579;43.238;23.124;2023-02-04T11:20:34;1.70;;;0.73;;
39410;SDS011;26579;43.238;23.124;2023-02-04T11:23:13;2.63;;;1.30;;
39410;SDS011;26579;43.238;23.124;2023-02-04T11:26:08;7.10;;;4.00;;
39410;SDS011;26579;43.238;23.124;2023-02-04T11:28:44;13.10;;;5.63;;
39410;SDS011;26579;43.238;23.124;2023-02-04T11:33:45;15.70;;;8.15;;
39410;SDS011;26579;43.238;23.124;2023-02-04T11:36:12;14.85;;;7.07;;
39410;SDS011;26579;43.238;23.124;2023-02-04T11:38:42;10.05;;;5.05;;
39410;SDS011;26579;43.238;23.124;2023-02-04T11:41:14;14.63;;;8.98;;
39410;SDS011;26579;43.238;23.124;2023-02-04T11:43:45;15.05;;;7.53;;
39410;SDS011;26579;43.238;23.124;2023-02-04T11:46:21;14.25;;;6.50;;
39410;SDS011;26579;43.238;23.124;2023-02-04T11:48:53;33.83;;;17.60;;
39410;SDS011;26579;43.238;23.124;2023-02-04T11:51:31;13.98;;;7.60;;
39410;SDS011;26579;43.238;23.124;2023-02-04T11:53:58;12.63;;;7.68;;
39410;SDS011;26579;43.238;23.124;2023-02-04T11:56:26;20.13;;;9.90;;
39410;SDS011;26579;43.238;23.124;2023-02-04T11:58:54;9.27;;;4.70;;
39410;SDS011;26579;43.238;23.124;2023-02-04T12:01:32;12.27;;;6.97;;
39410;SDS011;26579;43.238;23.124;2023-02-04T12:03:59;10.93;;;5.68;;
39410;SDS011;26579;43.238;23.124;2023-02-04T12:06:27;8.55;;;4.20;;
39410;SDS011;26579;43.238;23.124;2023-02-04T12:09:21;8.88;;;4.93;;
39410;SDS011;26579;43.238;23.124;2023-02-04T12:14:20;8.57;;;4.97;;
39410;SDS011;26579;43.238;23.124;2023-02-04T12:16:52;13.23;;;6.97;;
39410;SDS011;26579;43.238;23.124;2023-02-04T12:19:18;7.65;;;3.80;;
39410;SDS011;26579;43.238;23.124;2023-02-04T12:21:43;3.75;;;2.22;;
39410;SDS011;26579;43.238;23.124;2023-02-04T12:24:09;3.50;;;1.42;;
39410;SDS011;26579;43.238;23.124;2023-02-04T12:26:35;2.42;;;0.98;;
39410;SDS011;26579;43.238;23.124;2023-02-04T12:29:01;4.93;;;2.35;;
39410;SDS011;26579;43.238;23.124;2023-02-04T12:31:27;4.18;;;2.47;;
39410;SDS011;26579;43.238;23.124;2023-02-04T12:33:55;2.60;;;1.30;;
39410;SDS011;26579;43.238;23.124;2023-02-04T12:36:24;11.27;;;6.60;;
39410;SDS011;26579;43.238;23.124;2023-02-04T12:38:50;0.63;;;0.43;;
39410;SDS011;26579;43.238;23.124;2023-02-04T12:41:16;2.60;;;0.98;;
39410;SDS011;26579;43.238;23.124;2023-02-04T12:43:42;12.05;;;6.80;;
39410;SDS011;26579;43.238;23.124;2023-02-04T12:46:07;4.10;;;2.22;;
39410;SDS011;26579;43.238;23.124;2023-02-04T12:48:33;7.45;;;4.22;;
39410;SDS011;26579;43.238;23.124;2023-02-04T12:50:59;9.60;;;5.15;;
39410;SDS011;26579;43.238;23.124;2023-02-04T12:53:24;6.35;;;3.03;;
39410;SDS011;26579;43.238;23.124;2023-02-04T12:56:31;2.58;;;1.05;;
39410;SDS011;26579;43.238;23.124;2023-02-04T12:58:57;14.93;;;7.20;;
39410;SDS011;26579;43.238;23.124;2023-02-04T13:01:22;11.70;;;6.75;;
39410;SDS011;26579;43.238;23.124;2023-02-04T13:03:55;7.85;;;3.50;;
39410;SDS011;26579;43.238;23.124;2023-02-04T13:06:21;11.48;;;6.63;;
39410;SDS011;26579;43.238;23.124;2023-02-04T13:08:47;24.63;;;14.25;;
39410;SDS011;26579;43.238;23.124;2023-02-04T13:11:12;10.60;;;4.63;;
39410;SDS011;26579;43.238;23.124;2023-02-04T13:13:38;12.15;;;5.97;;
39410;SDS011;26579;43.238;23.124;2023-02-04T13:16:04;14.48;;;7.43;;
39410;SDS011;26579;43.238;23.124;2023-02-04T13:18:30;27.08;;;14.18;;
39410;SDS011;26579;43.238;23.124;2023-02-04T13:20:55;14.07;;;7.35;;
39410;SDS011;26579;43.238;23.124;2023-02-04T13:23:21;12.30;;;6.85;;
39410;SDS011;26579;43.238;23.124;2023-02-04T13:25:47;12.55;;;6.60;;
39410;SDS011;26579;43.238;23.124;2023-02-04T13:28:12;9.50;;;4.88;;
39410;SDS011;26579;43.238;23.124;2023-02-04T13:30:38;8.38;;;4.45;;
39410;SDS011;26579;43.238;23.124;2023-02-04T13:33:04;5.40;;;2.92;;
39410;SDS011;26579;43.238;23.124;2023-02-04T13:35:30;7.70;;;4.57;;
39410;SDS011;26579;43.238;23.124;2023-02-04T13:37:55;13.93;;;5.32;;
39410;SDS011;26579;43.238;23.124;2023-02-04T13:40:21;10.02;;;5.40;;
39410;SDS011;26579;43.238;23.124;2023-02-04T13:42:50;8.43;;;4.35;;
39410;SDS011;26579;43.238;23.124;2023-02-04T13:45:16;6.75;;;4.07;;
39410;SDS011;26579;43.238;23.124;2023-02-04T13:47:44;8.75;;;4.43;;
39410;SDS011;26579;43.238;23.124;2023-02-04T13:50:10;16.48;;;9.82;;
39410;SDS011;26579;43.238;23.124;2023-02-04T13:52:36;9.38;;;5.45;;
39410;SDS011;26579;43.238;23.124;2023-02-04T13:55:01;6.55;;;2.70;;
39410;SDS011;26579;43.238;23.124;2023-02-04T13:57:27;8.00;;;4.28;;
39410;SDS011;26579;43.238;23.124;2023-02-04T13:59:53;11.15;;;6.63;;
39410;SDS011;26579;43.238;23.124;2023-02-04T14:02:19;24.23;;;11.98;;
39410;SDS011;26579;43.238;23.124;2023-02-04T14:04:45;12.10;;;5.25;;
39410;SDS011;26579;43.238;23.124;2023-02-04T14:07:11;6.55;;;3.85;;
39410;SDS011;26579;43.238;23.124;2023-02-04T14:09:36;11.80;;;7.30;;
39410;SDS011;26579;43.238;23.124;2023-02-04T14:12:02;6.55;;;3.58;;
39410;SDS011;26579;43.238;23.124;2023-02-04T14:14:28;14.43;;;6.32;;
39410;SDS011;26579;43.238;23.124;2023-02-04T14:16:53;13.38;;;7.90;;
39410;SDS011;26579;43.238;23.124;2023-02-04T14:19:19;5.30;;;2.92;;
39410;SDS011;26579;43.238;23.124;2023-02-04T14:21:45;10.48;;;5.75;;
39410;SDS011;26579;43.238;23.124;2023-02-04T14:24:10;6.47;;;3.55;;
39410;SDS011;26579;43.238;23.124;2023-02-04T14:26:36;11.77;;;5.95;;
39410;SDS011;26579;43.238;23.124;2023-02-04T14:29:02;5.38;;;2.85;;
39410;SDS011;26579;43.238;23.124;2023-02-04T14:31:28;3.90;;;2.00;;
39410;SDS011;26579;43.238;23.124;2023-02-04T14:33:54;29.60;;;14.90;;
39410;SDS011;26579;43.238;23.124;2023-02-04T14:36:19;4.57;;;2.92;;
39410;SDS011;26579;43.238;23.124;2023-02-04T14:38:45;3.40;;;1.80;;
39410;SDS011;26579;43.238;23.124;2023-02-04T14:41:10;8.38;;;4.28;;